sensor_id;sensor_type;location;lat;lon;timestamp;pressure;altitude;pressure_sealevel;temperature;humidity
62634;BME280;48704;50.534;6.442;2023-02-21T00:01:15;95949.09;;;3.30;100.00
62634;BME280;48704;50.534;6.442;2023-02-21T00:03:59;95942.50;;;3.24;100.00
62634;BME280;48704;50.534;6.442;2023-02-21T00:06:44;95945.75;;;3.19;100.00
62634;BME280;48704;50.534;6.442;2023-02-21T00:09:27;95959.94;;;3.18;100.00
62634;BME280;48704;50.534;6.442;2023-02-21T00:12:11;95952.06;;;3.59;100.00
62634;BME280;48704;50.534;6.442;2023-02-21T00:14:55;95950.66;;;3.71;100.00
62634;BME280;48704;50.534;6.442;2023-02-21T00:17:39;95951.13;;;3.86;100.00
62634;BME280;48704;50.534;6.442;2023-02-21T00:20:24;95937.53;;;4.15;100.00
62634;BME280;48704;50.534;6.442;2023-02-21T00:23:09;95942.69;;;4.13;100.00
62634;BME280;48704;50.534;6.442;2023-02-21T00:25:52;95938.19;;;4.02;100.00
62634;BME280;48704;50.534;6.442;2023-02-21T00:28:36;95948.72;;;3.88;100.00
62634;BME280;48704;50.534;6.442;2023-02-21T00:31:20;95951.22;;;4.02;100.00
62634;BME280;48704;50.534;6.442;2023-02-21T00:34:04;95950.06;;;3.99;100.00
62634;BME280;48704;50.534;6.442;2023-02-21T00:36:48;95948.66;;;3.91;100.00
62634;BME280;48704;50.534;6.442;2023-02-21T00:39:32;95948.31;;;3.89;100.00
62634;BME280;48704;50.534;6.442;2023-02-21T00:42:16;95948.66;;;3.91;100.00
62634;BME280;48704;50.534;6.442;2023-02-21T00:45:00;95945.56;;;3.89;100.00
62634;BME280;48704;50.534;6.442;2023-02-21T00:47:44;95938.50;;;3.88;100.00
62634;BME280;48704;50.534;6.442;2023-02-21T00:50:28;95938.50;;;3.88;100.00
62634;BME280;48704;50.534;6.442;2023-02-21T00:53:12;95935.22;;;3.93;100.00
62634;BME280;48704;50.534;6.442;2023-02-21T00:55:56;95936.78;;;3.94;100.00
62634;BME280;48704;50.534;6.442;2023-02-21T00:58:40;95926.53;;;3.95;100.00
62634;BME280;48704;50.534;6.442;2023-02-21T01:01:24;95920.25;;;3.94;100.00
62634;BME280;48704;50.534;6.442;2023-02-21T01:04:08;95919.47;;;3.94;100.00
62634;BME280;48704;50.534;6.442;2023-02-21T01:06:52;95921.31;;;3.81;100.00
62634;BME280;48704;50.534;6.442;2023-02-21T01:09:36;95906.97;;;3.89;100.00
62634;BME280;48704;50.534;6.442;2023-02-21T01:12:20;95909.38;;;3.87;100.00
62634;BME280;48704;50.534;6.442;2023-02-21T01:15:04;95914.38;;;3.92;100.00
62634;BME280;48704;50.534;6.442;2023-02-21T01:17:48;95911.63;;;3.92;100.00
62634;BME280;48704;50.534;6.442;2023-02-21T01:20:32;95906.25;;;3.85;100.00
62634;BME280;48704;50.534;6.442;2023-02-21T01:23:16;95908.22;;;3.85;100.00
62634;BME280;48704;50.534;6.442;2023-02-21T01:26:00;95914.31;;;3.96;100.00
62634;BME280;48704;50.534;6.442;2023-02-21T01:28:46;95911.13;;;3.97;100.00
62634;BME280;48704;50.534;6.442;2023-02-21T01:31:30;95921.94;;;3.88;100.00
62634;BME280;48704;50.534;6.442;2023-02-21T01:34:14;95930.50;;;3.54;100.00
62634;BME280;48704;50.534;6.442;2023-02-21T01:36:58;95923.28;;;3.21;100.00
62634;BME280;48704;50.534;6.442;2023-02-21T01:39:42;95915.50;;;3.16;100.00
62634;BME280;48704;50.534;6.442;2023-02-21T01:42:26;95914.59;;;3.22;100.00
62634;BME280;48704;50.534;6.442;2023-02-21T01:48:05;95903.34;;;3.92;100.00
62634;BME280;48704;50.534;6.442;2023-02-21T01:50:51;95907.81;;;3.86;100.00
62634;BME280;48704;50.534;6.442;2023-02-21T01:53:36;95913.31;;;3.86;100.00
62634;BME280;48704;50.534;6.442;2023-02-21T01:56:20;95906.22;;;3.49;100.00
62634;BME280;48704;50.534;6.442;2023-02-21T01:59:04;95909.50;;;3.80;100.00
62634;BME280;48704;50.534;6.442;2023-02-21T02:02:02;95913.91;;;3.58;100.00
62634;BME280;48704;50.534;6.442;2023-02-21T02:04:48;95906.28;;;3.65;100.00
62634;BME280;48704;50.534;6.442;2023-02-21T02:07:33;95903.47;;;3.29;100.00
62634;BME280;48704;50.534;6.442;2023-02-21T02:10:17;95905.41;;;3.09;100.00
62634;BME280;48704;50.534;6.442;2023-02-21T02:13:40;95917.63;;;2.85;100.00
62634;BME280;48704;50.534;6.442;2023-02-21T02:16:10;95912.22;;;3.24;100.00
62634;BME280;48704;50.534;6.442;2023-02-21T02:27:40;95905.69;;;3.34;100.00
62634;BME280;48704;50.534;6.442;2023-02-21T02:30:30;95900.13;;;3.18;100.00
62634;BME280;48704;50.534;6.442;2023-02-21T02:35:52;95895.56;;;3.31;100.00
62634;BME280;48704;50.534;6.442;2023-02-21T02:38:35;95893.84;;;3.38;100.00
62634;BME280;48704;50.534;6.442;2023-02-21T02:41:10;95890.81;;;3.52;100.00
62634;BME280;48704;50.534;6.442;2023-02-21T02:43:57;95888.31;;;3.38;100.00
62634;BME280;48704;50.534;6.442;2023-02-21T02:46:27;95897.66;;;3.24;100.00
62634;BME280;48704;50.534;6.442;2023-02-21T02:49:00;95897.25;;;3.25;100.00
62634;BME280;48704;50.534;6.442;2023-02-21T02:51:26;95887.91;;;3.59;100.00
62634;BME280;48704;50.534;6.442;2023-02-21T02:53:52;95888.47;;;3.70;100.00
62634;BME280;48704;50.534;6.442;2023-02-21T02:56:17;95881.31;;;3.73;100.00
62634;BME280;48704;50.534;6.442;2023-02-21T02:58:47;95871.88;;;3.54;100.00
62634;BME280;48704;50.534;6.442;2023-02-21T03:04:22;95874.50;;;3.21;100.00
62634;BME280;48704;50.534;6.442;2023-02-21T03:09:42;95869.97;;;3.11;100.00
62634;BME280;48704;50.534;6.442;2023-02-21T03:14:52;95873.66;;;3.24;100.00
62634;BME280;48704;50.534;6.442;2023-02-21T03:17:23;95874.03;;;3.03;100.00
62634;BME280;48704;50.534;6.442;2023-02-21T03:19:52;95866.84;;;2.89;100.00
62634;BME280;48704;50.534;6.442;2023-02-21T03:22:21;95874.25;;;2.92;100.00
62634;BME280;48704;50.534;6.442;2023-02-21T03:24:49;95872.88;;;2.81;100.00
62634;BME280;48704;50.534;6.442;2023-02-21T03:27:15;95872.72;;;2.91;100.00
62634;BME280;48704;50.534;6.442;2023-02-21T03:29:42;95868.41;;;2.67;100.00
62634;BME280;48704;50.534;6.442;2023-02-21T03:32:12;95870.63;;;2.52;100.00
62634;BME280;48704;50.534;6.442;2023-02-21T03:34:40;95865.59;;;2.47;100.00
62634;BME280;48704;50.534;6.442;2023-02-21T03:37:08;95857.88;;;2.39;100.00
62634;BME280;48704;50.534;6.442;2023-02-21T03:39:34;95853.03;;;2.46;100.00
62634;BME280;48704;50.534;6.442;2023-02-21T03:42:00;95861.78;;;2.41;100.00
62634;BME280;48704;50.534;6.442;2023-02-21T03:44:25;95861.88;;;2.34;100.00
62634;BME280;48704;50.534;6.442;2023-02-21T03:46:50;95856.13;;;2.72;100.00
62634;BME280;48704;50.534;6.442;2023-02-21T03:49:15;95853.97;;;2.83;100.00
62634;BME280;48704;50.534;6.442;2023-02-21T03:51:41;95855.06;;;2.89;100.00
62634;BME280;48704;50.534;6.442;2023-02-21T03:54:06;95862.94;;;2.87;100.00
62634;BME280;48704;50.534;6.442;2023-02-21T03:56:31;95859.59;;;2.76;100.00
62634;BME280;48704;50.534;6.442;2023-02-21T03:58:56;95864.56;;;2.61;100.00
62634;BME280;48704;50.534;6.442;2023-02-21T04:01:22;95862.44;;;2.49;100.00
62634;BME280;48704;50.534;6.442;2023-02-21T04:03:47;95858.28;;;2.60;100.00
62634;BME280;48704;50.534;6.442;2023-02-21T04:06:12;95859.25;;;2.74;100.00
62634;BME280;48704;50.534;6.442;2023-02-21T04:08:37;95857.34;;;2.71;100.00
62634;BME280;48704;50.534;6.442;2023-02-21T04:11:03;95855.06;;;2.65;100.00
62634;BME280;48704;50.534;6.442;2023-02-21T04:13:28;95862.97;;;2.63;100.00
62634;BME280;48704;50.534;6.442;2023-02-21T04:15:53;95862.31;;;2.79;100.00
62634;BME280;48704;50.534;6.442;2023-02-21T04:18:19;95850.28;;;2.69;100.00
62634;BME280;48704;50.534;6.442;2023-02-21T04:20:44;95847.88;;;2.72;100.00
62634;BME280;48704;50.534;6.442;2023-02-21T04:23:11;95848.59;;;2.76;100.00
62634;BME280;48704;50.534;6.442;2023-02-21T04:25:37;95849.44;;;2.73;100.00
62634;BME280;48704;50.534;6.442;2023-02-21T04:28:03;95854.59;;;2.47;100.00
62634;BME280;48704;50.534;6.442;2023-02-21T04:30:28;95846.31;;;2.71;100.00
62634;BME280;48704;50.534;6.442;2023-02-21T04:32:53;95851.25;;;2.59;100.00
62634;BME280;48704;50.534;6.442;2023-02-21T04:35:18;95846.19;;;2.58;100.00
62634;BME280;48704;50.534;6.442;2023-02-21T04:37:44;95841.78;;;2.60;100.00
62634;BME280;48704;50.534;6.442;2023-02-21T04:40:10;95836.16;;;2.67;100.00
62634;BME280;48704;50.534;6.442;2023-02-21T04:42:35;95835.00;;;2.45;100.00
62634;BME280;48704;50.534;6.442;2023-02-21T04:45:01;95840.38;;;2.52;100.00
62634;BME280;48704;50.534;6.442;2023-02-21T04:47:27;95829.53;;;2.42;100.00
62634;BME280;48704;50.534;6.442;2023-02-21T04:49:52;95841.19;;;2.26;100.00
62634;BME280;48704;50.534;6.442;2023-02-21T04:52:18;95845.84;;;2.29;100.00
62634;BME280;48704;50.534;6.442;2023-02-21T04:54:46;95834.63;;;2.20;100.00
62634;BME280;48704;50.534;6.442;2023-02-21T04:57:13;95827.09;;;2.47;100.00
62634;BME280;48704;50.534;6.442;2023-02-21T04:59:38;95825.44;;;2.53;100.00
62634;BME280;48704;50.534;6.442;2023-02-21T05:02:04;95823.75;;;2.36;100.00
62634;BME280;48704;50.534;6.442;2023-02-21T05:04:30;95821.00;;;2.36;100.00
62634;BME280;48704;50.534;6.442;2023-02-21T05:06:57;95823.38;;;2.34;100.00
62634;BME280;48704;50.534;6.442;2023-02-21T05:09:23;95816.16;;;2.44;100.00
62634;BME280;48704;50.534;6.442;2023-02-21T05:11:48;95826.16;;;2.57;100.00
62634;BME280;48704;50.534;6.442;2023-02-21T05:14:14;95830.94;;;2.53;100.00
62634;BME280;48704;50.534;6.442;2023-02-21T05:16:39;95828.59;;;2.52;100.00
62634;BME280;48704;50.534;6.442;2023-02-21T05:19:04;95831.63;;;2.34;100.00
62634;BME280;48704;50.534;6.442;2023-02-21T05:21:33;95827.16;;;2.44;100.00
62634;BME280;48704;50.534;6.442;2023-02-21T05:23:59;95832.72;;;2.40;100.00
62634;BME280;48704;50.534;6.442;2023-02-21T05:26:26;95836.50;;;2.50;100.00
62634;BME280;48704;50.534;6.442;2023-02-21T05:28:53;95832.59;;;2.47;100.00
62634;BME280;48704;50.534;6.442;2023-02-21T05:31:19;95837.84;;;2.61;100.00
62634;BME280;48704;50.534;6.442;2023-02-21T05:33:45;95836.53;;;2.46;100.00
62634;BME280;48704;50.534;6.442;2023-02-21T05:36:10;95830.09;;;2.56;100.00
62634;BME280;48704;50.534;6.442;2023-02-21T05:38:50;95837.53;;;2.79;100.00
62634;BME280;48704;50.534;6.442;2023-02-21T05:41:16;95837.72;;;2.68;100.00
62634;BME280;48704;50.534;6.442;2023-02-21T05:43:45;95832.22;;;2.68;100.00
62634;BME280;48704;50.534;6.442;2023-02-21T05:46:17;95832.09;;;2.76;100.00
62634;BME280;48704;50.534;6.442;2023-02-21T05:48:43;95834.97;;;2.68;100.00
62634;BME280;48704;50.534;6.442;2023-02-21T05:51:08;95842.84;;;2.66;100.00
62634;BME280;48704;50.534;6.442;2023-02-21T05:53:33;95834.50;;;2.50;100.00
62634;BME280;48704;50.534;6.442;2023-02-21T05:55:58;95837.50;;;2.36;100.00
62634;BME280;48704;50.534;6.442;2023-02-21T05:58:24;95832.09;;;2.29;100.00
62634;BME280;48704;50.534;6.442;2023-02-21T06:00:50;95833.59;;;2.33;100.00
62634;BME280;48704;50.534;6.442;2023-02-21T06:03:15;95837.84;;;2.38;100.00
62634;BME280;48704;50.534;6.442;2023-02-21T06:05:40;95828.78;;;2.41;100.00
62634;BME280;48704;50.534;6.442;2023-02-21T06:08:06;95828.78;;;2.41;100.00
62634;BME280;48704;50.534;6.442;2023-02-21T06:10:31;95828.00;;;2.41;100.00
62634;BME280;48704;50.534;6.442;2023-02-21T06:12:56;95828.88;;;2.34;100.00
62634;BME280;48704;50.534;6.442;2023-02-21T06:15:21;95834.75;;;2.36;100.00
62634;BME280;48704;50.534;6.442;2023-02-21T06:17:47;95828.28;;;2.46;100.00
62634;BME280;48704;50.534;6.442;2023-02-21T06:20:13;95825.84;;;2.52;100.00
62634;BME280;48704;50.534;6.442;2023-02-21T06:22:42;95831.03;;;2.46;100.00
62634;BME280;48704;50.534;6.442;2023-02-21T06:25:08;95833.06;;;2.42;100.00
62634;BME280;48704;50.534;6.442;2023-02-21T06:27:33;95840.13;;;2.43;100.00
62634;BME280;48704;50.534;6.442;2023-02-21T06:29:59;95836.59;;;2.43;100.00
62634;BME280;48704;50.534;6.442;2023-02-21T06:32:24;95839.78;;;2.41;100.00
62634;BME280;48704;50.534;6.442;2023-02-21T06:34:49;95842.16;;;2.39;100.00
62634;BME280;48704;50.534;6.442;2023-02-21T06:37:17;95840.00;;;2.50;100.00
62634;BME280;48704;50.534;6.442;2023-02-21T06:39:42;95838.88;;;2.48;100.00
62634;BME280;48704;50.534;6.442;2023-02-21T06:42:12;95835.72;;;2.49;100.00
62634;BME280;48704;50.534;6.442;2023-02-21T06:44:37;95834.75;;;2.59;100.00
62634;BME280;48704;50.534;6.442;2023-02-21T06:47:02;95830.94;;;2.53;100.00
62634;BME280;48704;50.534;6.442;2023-02-21T06:49:28;95834.53;;;2.70;100.00
62634;BME280;48704;50.534;6.442;2023-02-21T06:51:53;95833.41;;;2.67;100.00
62634;BME280;48704;50.534;6.442;2023-02-21T06:54:18;95832.94;;;2.73;100.00
62634;BME280;48704;50.534;6.442;2023-02-21T06:56:44;95837.59;;;2.76;100.00
62634;BME280;48704;50.534;6.442;2023-02-21T06:59:09;95836.47;;;2.73;100.00
62634;BME280;48704;50.534;6.442;2023-02-21T07:01:35;95838.78;;;2.75;100.00
62634;BME280;48704;50.534;6.442;2023-02-21T07:04:00;95844.59;;;2.80;100.00
62634;BME280;48704;50.534;6.442;2023-02-21T07:06:25;95839.94;;;2.77;100.00
62634;BME280;48704;50.534;6.442;2023-02-21T07:08:51;95843.69;;;2.87;100.00
62634;BME280;48704;50.534;6.442;2023-02-21T07:11:17;95835.97;;;2.78;100.00
62634;BME280;48704;50.534;6.442;2023-02-21T07:13:48;95834.84;;;2.76;100.00
62634;BME280;48704;50.534;6.442;2023-02-21T07:16:14;95836.88;;;2.72;100.00
62634;BME280;48704;50.534;6.442;2023-02-21T07:18:42;95838.25;;;2.83;100.00
62634;BME280;48704;50.534;6.442;2023-02-21T07:21:07;95834.84;;;2.76;100.00
62634;BME280;48704;50.534;6.442;2023-02-21T07:23:32;95836.88;;;2.72;100.00
62634;BME280;48704;50.534;6.442;2023-02-21T07:25:58;95834.78;;;2.99;100.00
62634;BME280;48704;50.534;6.442;2023-02-21T07:28:23;95844.97;;;3.02;100.00
62634;BME280;48704;50.534;6.442;2023-02-21T07:30:48;95839.19;;;2.96;100.00
62634;BME280;48704;50.534;6.442;2023-02-21T07:33:13;95843.13;;;3.15;100.00
62634;BME280;48704;50.534;6.442;2023-02-21T07:35:39;95836.38;;;3.20;100.00
62634;BME280;48704;50.534;6.442;2023-02-21T07:38:04;95832.56;;;3.33;100.00
62634;BME280;48704;50.534;6.442;2023-02-21T07:40:29;95840.75;;;3.17;100.00
62634;BME280;48704;50.534;6.442;2023-02-21T07:42:54;95830.38;;;3.25;100.00
62634;BME280;48704;50.534;6.442;2023-02-21T07:45:20;95837.19;;;3.36;100.00
62634;BME280;48704;50.534;6.442;2023-02-21T07:47:45;95836.09;;;3.14;100.00
62634;BME280;48704;50.534;6.442;2023-02-21T07:50:11;95840.81;;;3.14;100.00
62634;BME280;48704;50.534;6.442;2023-02-21T07:52:37;95827.19;;;3.26;100.00
62634;BME280;48704;50.534;6.442;2023-02-21T07:55:02;95831.47;;;3.47;100.00
62634;BME280;48704;50.534;6.442;2023-02-21T07:57:27;95829.78;;;3.53;100.00
62634;BME280;48704;50.534;6.442;2023-02-21T07:59:53;95816.13;;;3.66;100.00
62634;BME280;48704;50.534;6.442;2023-02-21T08:02:18;95816.66;;;3.77;100.00
62634;BME280;48704;50.534;6.442;2023-02-21T08:04:43;95815.13;;;3.92;100.00
62634;BME280;48704;50.534;6.442;2023-02-21T08:07:09;95818.44;;;4.03;100.00
62634;BME280;48704;50.534;6.442;2023-02-21T08:09:35;95824.28;;;4.06;100.00
62634;BME280;48704;50.534;6.442;2023-02-21T08:12:00;95829.97;;;4.15;100.00
62634;BME280;48704;50.534;6.442;2023-02-21T08:14:25;95835.84;;;4.33;100.00
62634;BME280;48704;50.534;6.442;2023-02-21T08:16:51;95834.81;;;4.43;100.00
62634;BME280;48704;50.534;6.442;2023-02-21T08:19:16;95829.88;;;4.51;100.00
62634;BME280;48704;50.534;6.442;2023-02-21T08:21:48;95828.41;;;4.79;100.00
62634;BME280;48704;50.534;6.442;2023-02-21T08:24:15;95824.22;;;4.87;100.00
62634;BME280;48704;50.534;6.442;2023-02-21T08:26:40;95828.69;;;4.97;100.00
62634;BME280;48704;50.534;6.442;2023-02-21T08:29:07;95833.31;;;5.16;100.00
62634;BME280;48704;50.534;6.442;2023-02-21T08:31:38;95818.22;;;5.33;100.00
62634;BME280;48704;50.534;6.442;2023-02-21T08:34:05;95833.03;;;5.40;100.00
62634;BME280;48704;50.534;6.442;2023-02-21T08:36:32;95836.81;;;5.46;100.00
62634;BME280;48704;50.534;6.442;2023-02-21T08:38:58;95832.16;;;5.43;100.00
62634;BME280;48704;50.534;6.442;2023-02-21T08:41:23;95829.06;;;5.41;100.00
62634;BME280;48704;50.534;6.442;2023-02-21T08:43:50;95832.50;;;5.57;100.00
62634;BME280;48704;50.534;6.442;2023-02-21T08:46:15;95826.47;;;5.75;100.00
62634;BME280;48704;50.534;6.442;2023-02-21T08:48:40;95823.41;;;5.98;100.00
62634;BME280;48704;50.534;6.442;2023-02-21T08:51:05;95832.81;;;6.01;100.00
62634;BME280;48704;50.534;6.442;2023-02-21T08:53:31;95819.88;;;6.11;100.00
62634;BME280;48704;50.534;6.442;2023-02-21T08:55:56;95820.84;;;6.42;100.00
62634;BME280;48704;50.534;6.442;2023-02-21T08:58:21;95821.63;;;6.55;100.00
62634;BME280;48704;50.534;6.442;2023-02-21T09:00:46;95818.06;;;6.67;100.00
62634;BME280;48704;50.534;6.442;2023-02-21T09:03:12;95813.69;;;6.79;100.00
62634;BME280;48704;50.534;6.442;2023-02-21T09:05:37;95812.75;;;6.95;100.00
62634;BME280;48704;50.534;6.442;2023-02-21T09:08:03;95810.69;;;7.08;100.00
62634;BME280;48704;50.534;6.442;2023-02-21T09:10:31;95811.09;;;7.19;100.00
62634;BME280;48704;50.534;6.442;2023-02-21T09:13:00;95819.56;;;7.37;100.00
62634;BME280;48704;50.534;6.442;2023-02-21T09:15:26;95814.38;;;7.49;100.00
62634;BME280;48704;50.534;6.442;2023-02-21T09:17:52;95814.53;;;7.67;100.00
62634;BME280;48704;50.534;6.442;2023-02-21T09:20:22;95811.94;;;7.72;100.00
62634;BME280;48704;50.534;6.442;2023-02-21T09:22:48;95808.38;;;7.72;100.00
62634;BME280;48704;50.534;6.442;2023-02-21T09:25:16;95816.91;;;8.09;100.00
62634;BME280;48704;50.534;6.442;2023-02-21T09:27:41;95815.94;;;8.33;100.00
62634;BME280;48704;50.534;6.442;2023-02-21T09:30:16;95809.41;;;8.77;100.00
62634;BME280;48704;50.534;6.442;2023-02-21T09:32:42;95807.59;;;9.10;100.00
62634;BME280;48704;50.534;6.442;2023-02-21T09:35:08;95810.00;;;9.72;100.00
62634;BME280;48704;50.534;6.442;2023-02-21T09:37:38;95802.84;;;9.98;100.00
62634;BME280;48704;50.534;6.442;2023-02-21T09:40:06;95803.13;;;10.76;100.00
62634;BME280;48704;50.534;6.442;2023-02-21T09:42:34;95803.09;;;11.23;100.00
62634;BME280;48704;50.534;6.442;2023-02-21T09:45:00;95800.19;;;11.71;100.00
62634;BME280;48704;50.534;6.442;2023-02-21T09:47:34;95790.19;;;12.09;100.00
62634;BME280;48704;50.534;6.442;2023-02-21T09:50:05;95796.25;;;12.22;100.00
62634;BME280;48704;50.534;6.442;2023-02-21T09:52:36;95788.00;;;12.48;100.00
62634;BME280;48704;50.534;6.442;2023-02-21T09:55:33;95790.97;;;11.26;100.00
62634;BME280;48704;50.534;6.442;2023-02-21T09:57:59;95790.91;;;12.53;100.00
62634;BME280;48704;50.534;6.442;2023-02-21T10:00:32;95790.34;;;12.69;100.00
62634;BME280;48704;50.534;6.442;2023-02-21T10:03:16;95788.69;;;12.78;100.00
62634;BME280;48704;50.534;6.442;2023-02-21T10:08:53;95778.41;;;12.69;100.00
62634;BME280;48704;50.534;6.442;2023-02-21T10:11:29;95770.94;;;12.60;100.00
62634;BME280;48704;50.534;6.442;2023-02-21T10:14:16;95772.34;;;13.11;100.00
62634;BME280;48704;50.534;6.442;2023-02-21T10:16:50;95773.56;;;12.69;100.00
62634;BME280;48704;50.534;6.442;2023-02-21T10:19:25;95774.16;;;12.94;100.00
62634;BME280;48704;50.534;6.442;2023-02-21T10:21:55;95776.16;;;13.28;100.00
62634;BME280;48704;50.534;6.442;2023-02-21T10:24:25;95780.34;;;13.18;100.00
62634;BME280;48704;50.534;6.442;2023-02-21T10:27:01;95770.38;;;12.77;100.00
62634;BME280;48704;50.534;6.442;2023-02-21T10:29:42;95771.88;;;13.59;100.00
62634;BME280;48704;50.534;6.442;2023-02-21T10:32:09;95767.59;;;14.21;96.79
62634;BME280;48704;50.534;6.442;2023-02-21T10:34:34;95770.94;;;14.25;96.54
62634;BME280;48704;50.534;6.442;2023-02-21T10:39:48;95769.31;;;14.81;93.69
62634;BME280;48704;50.534;6.442;2023-02-21T10:42:28;95771.03;;;14.67;94.50
62634;BME280;48704;50.534;6.442;2023-02-21T10:44:55;95771.13;;;14.84;94.10
62634;BME280;48704;50.534;6.442;2023-02-21T10:47:45;95774.00;;;15.66;88.22
62634;BME280;48704;50.534;6.442;2023-02-21T10:50:12;95777.13;;;14.66;94.62
62634;BME280;48704;50.534;6.442;2023-02-21T10:52:49;95773.22;;;15.60;88.87
62634;BME280;48704;50.534;6.442;2023-02-21T10:55:21;95771.50;;;16.07;89.07
62634;BME280;48704;50.534;6.442;2023-02-21T10:57:53;95770.22;;;16.36;83.94
62634;BME280;48704;50.534;6.442;2023-02-21T11:00:29;95770.50;;;16.66;82.38
62634;BME280;48704;50.534;6.442;2023-02-21T11:03:03;95768.97;;;16.20;86.02
62634;BME280;48704;50.534;6.442;2023-02-21T11:05:30;95774.09;;;16.27;85.41
62634;BME280;48704;50.534;6.442;2023-02-21T11:08:04;95768.19;;;15.97;88.26
62634;BME280;48704;50.534;6.442;2023-02-21T11:10:40;95761.91;;;15.43;82.00
62634;BME280;48704;50.534;6.442;2023-02-21T11:13:16;95755.38;;;15.74;75.10
62634;BME280;48704;50.534;6.442;2023-02-21T11:15:43;95763.06;;;16.01;75.14
62634;BME280;48704;50.534;6.442;2023-02-21T11:18:23;95756.88;;;15.64;70.70
62634;BME280;48704;50.534;6.442;2023-02-21T11:20:50;95753.06;;;15.67;66.79
62634;BME280;48704;50.534;6.442;2023-02-21T11:23:23;95748.16;;;15.51;67.19
62634;BME280;48704;50.534;6.442;2023-02-21T11:25:55;95739.59;;;15.93;61.40
62634;BME280;48704;50.534;6.442;2023-02-21T11:28:22;95737.75;;;16.52;59.55
62634;BME280;48704;50.534;6.442;2023-02-21T11:33:25;95737.97;;;16.82;54.32
62634;BME280;48704;50.534;6.442;2023-02-21T11:36:05;95730.78;;;16.92;50.47
62634;BME280;48704;50.534;6.442;2023-02-21T11:38:36;95736.41;;;16.92;45.83
62634;BME280;48704;50.534;6.442;2023-02-21T11:43:48;95723.22;;;16.09;47.96
62634;BME280;48704;50.534;6.442;2023-02-21T11:46:41;95722.94;;;16.46;47.61
62634;BME280;48704;50.534;6.442;2023-02-21T11:51:48;95715.38;;;15.14;47.69
62634;BME280;48704;50.534;6.442;2023-02-21T11:54:14;95713.50;;;16.21;46.98
62634;BME280;48704;50.534;6.442;2023-02-21T11:59:52;95706.34;;;16.09;47.72
62634;BME280;48704;50.534;6.442;2023-02-21T12:16:45;95677.84;;;18.14;42.60
62634;BME280;48704;50.534;6.442;2023-02-21T12:22:02;95673.88;;;18.22;42.65
62634;BME280;48704;50.534;6.442;2023-02-21T12:27:18;95665.75;;;18.43;41.89
62634;BME280;48704;50.534;6.442;2023-02-21T12:38:02;95663.91;;;18.94;47.11
62634;BME280;48704;50.534;6.442;2023-02-21T12:40:51;95670.94;;;17.79;51.50
62634;BME280;48704;50.534;6.442;2023-02-21T12:43:25;95655.09;;;18.06;49.14
62634;BME280;48704;50.534;6.442;2023-02-21T12:48:54;95651.59;;;18.49;44.07
62634;BME280;48704;50.534;6.442;2023-02-21T12:51:27;95652.94;;;18.18;42.18
62634;BME280;48704;50.534;6.442;2023-02-21T12:54:35;95661.78;;;18.82;41.82
62634;BME280;48704;50.534;6.442;2023-02-21T12:57:07;95652.53;;;18.02;43.16
62634;BME280;48704;50.534;6.442;2023-02-21T13:02:58;95656.31;;;15.96;46.21
62634;BME280;48704;50.534;6.442;2023-02-21T13:05:30;95651.28;;;17.68;45.50
62634;BME280;48704;50.534;6.442;2023-02-21T13:08:06;95644.47;;;18.18;43.15
62634;BME280;48704;50.534;6.442;2023-02-21T13:10:48;95645.06;;;17.40;44.39
62634;BME280;48704;50.534;6.442;2023-02-21T13:13:20;95646.00;;;17.89;45.11
62634;BME280;48704;50.534;6.442;2023-02-21T13:15:48;95633.06;;;18.04;44.65
62634;BME280;48704;50.534;6.442;2023-02-21T13:20:47;95634.78;;;17.07;47.27
62634;BME280;48704;50.534;6.442;2023-02-21T13:26:48;95626.41;;;16.90;49.44
62634;BME280;48704;50.534;6.442;2023-02-21T13:29:24;95616.91;;;17.40;49.18
62634;BME280;48704;50.534;6.442;2023-02-21T13:32:05;95619.03;;;17.93;46.83
62634;BME280;48704;50.534;6.442;2023-02-21T13:34:53;95609.38;;;17.12;47.67
62634;BME280;48704;50.534;6.442;2023-02-21T13:37:25;95615.75;;;17.54;47.52
62634;BME280;48704;50.534;6.442;2023-02-21T13:39:59;95607.00;;;17.93;46.92
62634;BME280;48704;50.534;6.442;2023-02-21T13:42:33;95601.78;;;17.43;48.15
62634;BME280;48704;50.534;6.442;2023-02-21T13:45:16;95599.78;;;17.97;48.09
62634;BME280;48704;50.534;6.442;2023-02-21T13:55:32;95592.91;;;17.27;49.46
62634;BME280;48704;50.534;6.442;2023-02-21T14:02:54;95592.59;;;16.26;52.04
62634;BME280;48704;50.534;6.442;2023-02-21T14:05:20;95584.38;;;17.03;51.77
62634;BME280;48704;50.534;6.442;2023-02-21T14:07:48;95583.97;;;17.23;52.24
62634;BME280;48704;50.534;6.442;2023-02-21T14:13:02;95587.97;;;16.34;52.56
62634;BME280;48704;50.534;6.442;2023-02-21T14:21:09;95586.22;;;16.26;54.60
62634;BME280;48704;50.534;6.442;2023-02-21T14:23:44;95587.53;;;16.83;53.24
62634;BME280;48704;50.534;6.442;2023-02-21T14:37:39;95584.25;;;15.82;58.73
62634;BME280;48704;50.534;6.442;2023-02-21T14:42:50;95585.19;;;16.29;56.28
62634;BME280;48704;50.534;6.442;2023-02-21T14:48:31;95579.47;;;17.45;51.57
62634;BME280;48704;50.534;6.442;2023-02-21T15:02:33;95573.78;;;18.96;46.86
62634;BME280;48704;50.534;6.442;2023-02-21T15:05:34;95577.19;;;19.46;46.49
62634;BME280;48704;50.534;6.442;2023-02-21T15:08:21;95572.63;;;17.34;49.86
62634;BME280;48704;50.534;6.442;2023-02-21T15:11:00;95576.69;;;17.39;52.66
62634;BME280;48704;50.534;6.442;2023-02-21T15:13:32;95576.47;;;16.96;52.64
62634;BME280;48704;50.534;6.442;2023-02-21T15:16:05;95575.25;;;18.17;48.12
62634;BME280;48704;50.534;6.442;2023-02-21T15:18:39;95572.41;;;19.73;45.09
62634;BME280;48704;50.534;6.442;2023-02-21T15:23:41;95569.88;;;19.69;44.13
62634;BME280;48704;50.534;6.442;2023-02-21T15:26:21;95571.56;;;18.70;46.62
62634;BME280;48704;50.534;6.442;2023-02-21T15:31:34;95569.38;;;18.39;47.80
62634;BME280;48704;50.534;6.442;2023-02-21T15:34:00;95574.63;;;19.10;46.35
62634;BME280;48704;50.534;6.442;2023-02-21T15:36:26;95568.88;;;20.12;43.39
62634;BME280;48704;50.534;6.442;2023-02-21T15:39:05;95569.84;;;19.37;48.85